createdAt,value
2022-08-16T00:02:22.085Z,16.85
2022-08-16T00:04:51.145Z,16.71
2022-08-16T00:07:18.947Z,16.66
2022-08-16T00:09:46.487Z,16.58
2022-08-16T00:12:17.895Z,16.74
2022-08-16T00:14:46.184Z,16.46
2022-08-16T00:17:18.498Z,16.57
2022-08-16T00:19:49.097Z,16.73
2022-08-16T00:22:24.978Z,16.45
2022-08-16T00:24:54.630Z,16.57
2022-08-16T00:27:23.316Z,16.62
2022-08-16T00:30:08.769Z,16.57
2022-08-16T00:32:39.899Z,16.27
2022-08-16T00:35:11.004Z,16.47
2022-08-16T00:37:58.775Z,16.55
2022-08-16T00:40:36.459Z,16.27
2022-08-16T00:43:12.385Z,16.55
2022-08-16T00:46:34.384Z,16.64
2022-08-16T00:48:54.213Z,16.59
2022-08-16T00:51:23.119Z,16.81
2022-08-16T00:53:51.621Z,16.80
2022-08-16T00:56:56.748Z,16.44
2022-08-16T00:59:11.447Z,16.83
2022-08-16T01:01:45.103Z,16.55
2022-08-16T01:04:29.218Z,16.25
2022-08-16T01:07:01.139Z,16.28
2022-08-16T01:09:34.717Z,15.98
2022-08-16T01:12:08.472Z,16.12
2022-08-16T01:14:48.430Z,16.18
2022-08-16T01:17:17.733Z,16.08
2022-08-16T01:19:51.961Z,16.31
2022-08-16T01:22:52.669Z,16.30
2022-08-16T01:25:34.057Z,16.06
2022-08-16T01:28:07.444Z,16.02
2022-08-16T01:30:40.178Z,15.98
2022-08-16T01:33:19.247Z,16.22
2022-08-16T01:35:53.325Z,16.12
2022-08-16T01:38:31.094Z,16.01
2022-08-16T01:41:07.294Z,16.00
2022-08-16T01:43:36.139Z,15.91
2022-08-16T01:46:38.204Z,16.02
2022-08-16T01:49:00.828Z,15.88
2022-08-16T01:51:29.210Z,15.92
2022-08-16T01:53:58.041Z,15.62
2022-08-16T01:56:26.370Z,15.64
2022-08-16T01:58:55.649Z,15.58
2022-08-16T02:01:28.257Z,15.84
2022-08-16T02:03:58.704Z,15.56
2022-08-16T02:06:38.875Z,15.61
2022-08-16T02:09:11.657Z,15.63
2022-08-16T02:11:48.450Z,15.69
2022-08-16T02:14:26.196Z,15.53
2022-08-16T02:16:56.275Z,15.69
2022-08-16T02:19:58.486Z,15.48
2022-08-16T02:22:35.833Z,15.59
2022-08-16T02:25:08.292Z,15.46
2022-08-16T02:27:42.405Z,15.69
2022-08-16T02:30:37.403Z,15.88
2022-08-16T02:33:05.562Z,15.95
2022-08-16T02:35:34.484Z,15.96
2022-08-16T02:38:24.383Z,15.81
2022-08-16T02:40:54.338Z,15.87
2022-08-16T02:43:26.712Z,15.80
2022-08-16T02:45:56.878Z,15.99
2022-08-16T02:48:29.370Z,15.80
2022-08-16T02:51:06.172Z,16.04
2022-08-16T02:53:45.279Z,16.07
2022-08-16T02:56:14.598Z,15.97
2022-08-16T02:58:47.598Z,16.03
2022-08-16T03:01:17.276Z,15.91
2022-08-16T03:04:40.837Z,15.86
2022-08-16T03:06:45.744Z,15.88
2022-08-16T03:09:16.300Z,16.00
2022-08-16T03:11:45.197Z,16.00
2022-08-16T03:14:14.299Z,16.01
2022-08-16T03:17:00.201Z,16.30
2022-08-16T03:19:47.410Z,16.25
2022-08-16T03:22:28.319Z,16.16
2022-08-16T03:24:58.642Z,16.58
2022-08-16T03:27:31.198Z,16.84
2022-08-16T03:30:17.299Z,17.03
2022-08-16T03:32:51.256Z,17.29
2022-08-16T03:35:22.258Z,17.11
2022-08-16T03:38:02.753Z,17.33
2022-08-16T03:40:34.145Z,17.65
2022-08-16T03:43:20.328Z,17.91
2022-08-16T03:45:52.961Z,18.29
2022-08-16T03:48:36.677Z,18.26
2022-08-16T03:51:10.303Z,18.31
2022-08-16T03:53:43.508Z,18.84
2022-08-16T03:56:19.740Z,19.11
2022-08-16T03:58:50.968Z,19.16
2022-08-16T04:01:24.462Z,19.47
2022-08-16T04:03:57.747Z,19.69
2022-08-16T04:06:25.571Z,19.90
2022-08-16T04:08:54.581Z,20.02
2022-08-16T04:11:23.706Z,20.29
2022-08-16T04:14:00.856Z,20.51
2022-08-16T04:16:37.918Z,20.74
2022-08-16T04:19:08.712Z,20.90
2022-08-16T04:21:45.925Z,21.10
2022-08-16T04:24:16.791Z,21.37
2022-08-16T04:26:46.181Z,21.61
2022-08-16T04:29:24.412Z,21.80
2022-08-16T04:31:56.116Z,22.03
2022-08-16T04:34:28.025Z,22.25
2022-08-16T04:36:56.728Z,22.54
2022-08-16T04:39:37.128Z,22.82
2022-08-16T04:42:14.403Z,23.07
2022-08-16T04:44:53.589Z,23.40
2022-08-16T04:47:31.509Z,23.68
2022-08-16T04:50:09.489Z,23.96
2022-08-16T04:52:38.446Z,24.25
2022-08-16T04:55:11.895Z,24.57
2022-08-16T04:57:41.935Z,24.82
2022-08-16T05:00:30.539Z,25.05
2022-08-16T05:03:07.518Z,25.32
2022-08-16T05:05:55.496Z,25.52
2022-08-16T05:08:30.149Z,25.75
2022-08-16T05:11:00.565Z,25.87
2022-08-16T05:13:39.805Z,26.14
2022-08-16T05:16:19.750Z,26.46
2022-08-16T05:18:50.580Z,26.64
2022-08-16T05:21:20.928Z,26.92
2022-08-16T05:23:58.444Z,27.18
2022-08-16T05:26:28.725Z,27.27
2022-08-16T05:28:57.908Z,27.49
2022-08-16T05:31:29.461Z,27.76
2022-08-16T05:34:03.651Z,27.98
2022-08-16T05:36:33.893Z,28.11
2022-08-16T05:39:08.809Z,28.35
2022-08-16T05:41:44.776Z,28.58
2022-08-16T05:44:23.235Z,28.80
2022-08-16T05:47:00.162Z,29.00
2022-08-16T05:49:39.250Z,29.36
2022-08-16T05:52:13.585Z,29.69
2022-08-16T05:54:58.505Z,30.04
2022-08-16T05:57:34.573Z,30.12
2022-08-16T06:00:09.407Z,30.50
2022-08-16T06:02:40.937Z,30.78
2022-08-16T06:05:11.972Z,30.75
2022-08-16T06:07:42.398Z,31.02
2022-08-16T06:12:56.783Z,31.31
2022-08-16T06:15:27.350Z,31.69
2022-08-16T06:18:00.580Z,32.16
2022-08-16T06:20:35.777Z,32.29
2022-08-16T06:23:17.038Z,32.24
2022-08-16T06:25:53.251Z,32.56
2022-08-16T06:28:34.765Z,32.75
2022-08-16T06:31:05.016Z,32.68
2022-08-16T06:33:41.121Z,32.88
2022-08-16T06:36:10.492Z,32.90
2022-08-16T06:38:39.372Z,33.09
2022-08-16T06:41:24.194Z,33.22
2022-08-16T06:43:56.812Z,33.79
2022-08-16T06:46:38.009Z,33.77
2022-08-16T06:49:10.917Z,34.03
2022-08-16T06:51:46.448Z,34.25
2022-08-16T06:54:17.818Z,34.26
2022-08-16T06:59:31.098Z,34.40
2022-08-16T07:02:33.258Z,33.94
2022-08-16T07:05:02.429Z,34.08
2022-08-16T07:07:34.400Z,34.92
2022-08-16T07:10:08.454Z,34.50
2022-08-16T07:12:47.346Z,34.20
2022-08-16T07:15:25.945Z,34.23
2022-08-16T07:17:54.121Z,34.10
2022-08-16T07:20:35.038Z,34.12
2022-08-16T07:23:13.363Z,34.05
2022-08-16T07:25:44.505Z,34.63
2022-08-16T07:28:20.760Z,34.65
2022-08-16T07:30:52.771Z,34.69
2022-08-16T07:33:52.775Z,34.67
2022-08-16T07:36:10.116Z,34.46
2022-08-16T07:38:39.649Z,34.96
2022-08-16T07:41:09.715Z,34.41
2022-08-16T07:43:40.373Z,33.79
2022-08-16T07:46:38.571Z,34.14
2022-08-16T07:49:02.342Z,33.86
2022-08-16T07:51:37.041Z,34.44
2022-08-16T07:54:09.914Z,34.96
2022-08-16T07:56:39.676Z,35.09
2022-08-16T07:59:07.768Z,35.92
2022-08-16T08:01:36.087Z,35.22
2022-08-16T08:04:04.255Z,35.97
2022-08-16T08:06:36.433Z,36.21
2022-08-16T08:09:05.041Z,35.98
2022-08-16T08:11:33.615Z,35.74
2022-08-16T08:14:06.559Z,35.48
2022-08-16T08:16:35.915Z,35.35
2022-08-16T08:19:04.299Z,34.87
2022-08-16T08:21:59.026Z,36.08
2022-08-16T08:24:32.070Z,36.04
2022-08-16T08:27:03.820Z,36.45
2022-08-16T08:29:37.297Z,36.46
2022-08-16T08:32:57.377Z,36.76
2022-08-16T08:35:03.376Z,37.12
2022-08-16T08:37:54.204Z,36.95
2022-08-16T08:40:24.667Z,37.11
2022-08-16T08:43:00.547Z,37.13
2022-08-16T08:45:48.933Z,36.51
2022-08-16T08:48:32.766Z,37.95
2022-08-16T08:51:04.677Z,37.52
2022-08-16T08:53:34.378Z,37.46
2022-08-16T08:56:23.464Z,37.44
2022-08-16T08:58:59.146Z,38.01
2022-08-16T09:01:36.802Z,36.36
2022-08-16T09:04:14.442Z,37.62
2022-08-16T09:06:46.558Z,37.69
2022-08-16T09:09:16.907Z,37.15
2022-08-16T09:11:53.348Z,37.23
2022-08-16T09:14:26.436Z,36.72
2022-08-16T09:17:03.037Z,38.51
2022-08-16T09:19:34.241Z,38.06
2022-08-16T09:22:02.344Z,38.38
2022-08-16T09:24:47.206Z,38.00
2022-08-16T09:27:18.969Z,37.88
2022-08-16T09:29:47.029Z,38.03
2022-08-16T09:32:30.466Z,38.35
2022-08-16T09:35:00.189Z,37.75
2022-08-16T09:37:30.177Z,37.45
2022-08-16T09:40:32.751Z,38.40
2022-08-16T09:42:59.191Z,39.04
2022-08-16T09:45:29.135Z,37.58
2022-08-16T09:47:58.609Z,37.87
2022-08-16T09:50:37.225Z,38.39
2022-08-16T09:53:17.745Z,37.39
2022-08-16T09:55:49.301Z,36.70
2022-08-16T09:58:40.852Z,36.89
2022-08-16T10:01:11.163Z,37.08
2022-08-16T10:04:02.529Z,37.99
2022-08-16T10:06:33.428Z,38.44
2022-08-16T10:09:08.242Z,38.34
2022-08-16T10:12:11.810Z,38.33
2022-08-16T10:14:46.499Z,38.10
2022-08-16T10:17:14.678Z,38.94
2022-08-16T10:19:43.325Z,38.49
2022-08-16T10:22:12.644Z,37.49
2022-08-16T10:24:55.604Z,38.46
2022-08-16T10:27:29.980Z,37.37
2022-08-16T10:30:25.112Z,37.02
2022-08-16T10:32:54.418Z,37.21
2022-08-16T10:35:22.755Z,36.90
2022-08-16T10:37:52.398Z,37.07
2022-08-16T10:40:29.470Z,37.75
2022-08-16T10:43:00.422Z,38.04
2022-08-16T10:45:36.636Z,36.40
2022-08-16T10:48:27.277Z,37.90
2022-08-16T10:50:59.040Z,38.13
2022-08-16T10:53:33.102Z,39.41
2022-08-16T10:56:02.840Z,39.27
2022-08-16T10:58:33.967Z,39.07
2022-08-16T11:03:57.427Z,39.07
2022-08-16T11:06:26.760Z,37.64
2022-08-16T11:14:29.530Z,37.80
2022-08-16T11:17:02.763Z,37.18
2022-08-16T11:20:00.658Z,37.72
2022-08-16T11:22:39.429Z,38.38
2022-08-16T11:26:03.869Z,35.12
2022-08-16T11:28:07.880Z,35.52
2022-08-16T11:30:38.874Z,38.12
2022-08-16T11:33:08.145Z,38.35
2022-08-16T11:35:44.121Z,38.25
2022-08-16T11:38:46.562Z,37.97
2022-08-16T11:41:05.577Z,36.62
2022-08-16T11:43:36.486Z,36.69
2022-08-16T11:46:44.795Z,34.78
2022-08-16T11:48:57.578Z,35.14
2022-08-16T11:51:28.179Z,36.48
2022-08-16T11:53:55.892Z,35.02
2022-08-16T11:56:39.700Z,34.67
2022-08-16T11:59:12.782Z,34.80
2022-08-16T12:01:44.576Z,35.31
2022-08-16T12:04:24.026Z,34.42
2022-08-16T12:06:53.588Z,32.31
2022-08-16T12:09:24.699Z,33.11
2022-08-16T12:11:53.529Z,33.49
2022-08-16T12:14:22.845Z,33.23
2022-08-16T12:16:57.016Z,35.52
2022-08-16T12:19:33.902Z,33.88
2022-08-16T12:22:05.735Z,34.64
2022-08-16T12:24:51.244Z,33.76
2022-08-16T12:27:23.122Z,33.71
2022-08-16T12:29:54.556Z,35.52
2022-08-16T12:32:39.524Z,34.67
2022-08-16T12:35:12.415Z,33.13
2022-08-16T12:37:41.539Z,33.09
2022-08-16T12:40:22.471Z,32.56
2022-08-16T12:42:54.781Z,32.83
2022-08-16T12:45:29.582Z,33.37
2022-08-16T12:48:33.820Z,34.05
2022-08-16T12:53:51.917Z,32.21
2022-08-16T12:56:21.129Z,31.32
2022-08-16T12:58:51.645Z,31.41
2022-08-16T13:01:22.789Z,31.04
2022-08-16T13:04:08.247Z,31.77
2022-08-16T13:06:41.427Z,33.32
2022-08-16T13:09:21.115Z,34.31
2022-08-16T13:12:04.448Z,35.29
2022-08-16T13:14:38.493Z,35.83
2022-08-16T13:17:09.521Z,36.52
2022-08-16T13:20:07.287Z,36.27
2022-08-16T13:22:30.908Z,36.22
2022-08-16T13:24:59.193Z,35.92
2022-08-16T13:28:02.881Z,35.88
2022-08-16T13:30:36.600Z,35.78
2022-08-16T13:33:11.520Z,34.71
2022-08-16T13:35:44.212Z,33.58
2022-08-16T13:38:24.604Z,32.52
2022-08-16T13:40:57.385Z,32.07
2022-08-16T13:43:26.886Z,31.79
2022-08-16T13:45:56.574Z,31.52
2022-08-16T13:48:26.127Z,32.70
2022-08-16T13:50:55.202Z,31.82
2022-08-16T13:53:25.745Z,31.01
2022-08-16T13:55:58.469Z,31.66
2022-08-16T13:58:37.265Z,31.39
2022-08-16T14:01:17.059Z,31.48
2022-08-16T14:03:45.592Z,31.38
2022-08-16T14:06:14.205Z,31.66
2022-08-16T14:08:44.513Z,32.44
2022-08-16T14:11:27.471Z,32.92
2022-08-16T14:13:57.039Z,33.28
2022-08-16T14:16:33.944Z,33.33
2022-08-16T14:19:02.815Z,33.28
2022-08-16T14:21:35.226Z,33.23
2022-08-16T14:24:22.171Z,32.93
2022-08-16T14:26:53.795Z,32.61
2022-08-16T14:29:22.285Z,33.06
2022-08-16T14:31:53.540Z,33.00
2022-08-16T14:34:21.535Z,33.41
2022-08-16T14:36:53.824Z,33.83
2022-08-16T14:39:22.453Z,34.22
2022-08-16T14:41:53.356Z,34.08
2022-08-16T14:44:21.751Z,33.76
2022-08-16T14:46:49.394Z,33.32
2022-08-16T14:49:17.315Z,33.55
2022-08-16T14:51:46.519Z,33.30
2022-08-16T14:54:15.139Z,33.10
2022-08-16T14:56:54.578Z,33.07
2022-08-16T14:59:23.916Z,32.73
2022-08-16T15:01:58.963Z,32.55
2022-08-16T15:04:40.331Z,32.58
2022-08-16T15:07:17.227Z,32.71
2022-08-16T15:09:59.951Z,33.18
2022-08-16T15:12:33.736Z,33.43
2022-08-16T15:15:12.710Z,33.35
2022-08-16T15:17:53.961Z,33.47
2022-08-16T15:20:23.758Z,33.47
2022-08-16T15:22:54.047Z,33.71
2022-08-16T15:25:27.608Z,33.80
2022-08-16T15:27:58.244Z,33.75
2022-08-16T15:30:59.693Z,33.57
2022-08-16T15:33:17.325Z,33.50
2022-08-16T15:35:47.452Z,33.58
2022-08-16T15:38:56.783Z,33.48
2022-08-16T15:41:05.129Z,33.26
2022-08-16T15:43:39.054Z,33.06
2022-08-16T15:46:35.790Z,32.76
2022-08-16T15:49:15.651Z,32.33
2022-08-16T15:51:45.758Z,31.74
2022-08-16T15:54:21.407Z,31.41
2022-08-16T15:57:09.612Z,31.24
2022-08-16T15:59:48.631Z,30.88
2022-08-16T16:02:27.618Z,30.61
2022-08-16T16:04:57.409Z,30.73
2022-08-16T16:07:31.658Z,30.48
2022-08-16T16:10:00.417Z,30.35
2022-08-16T16:15:22.756Z,29.89
2022-08-16T16:17:52.233Z,29.60
2022-08-16T16:20:24.436Z,29.32
2022-08-16T16:23:02.588Z,28.65
2022-08-16T16:25:31.934Z,28.49
2022-08-16T16:28:00.692Z,28.37
2022-08-16T16:30:37.359Z,27.62
2022-08-16T16:33:12.099Z,27.27
2022-08-16T16:35:55.382Z,26.64
2022-08-16T16:38:29.152Z,25.97
2022-08-16T16:41:01.373Z,25.93
2022-08-16T16:43:31.841Z,25.60
2022-08-16T16:46:01.767Z,25.36
2022-08-16T16:48:35.017Z,25.46
2022-08-16T16:51:09.745Z,25.48
2022-08-16T16:53:42.834Z,25.06
2022-08-16T16:56:20.435Z,25.17
2022-08-16T16:59:01.773Z,24.87
2022-08-16T17:01:41.197Z,24.91
2022-08-16T17:04:31.342Z,24.36
2022-08-16T17:07:00.607Z,24.53
2022-08-16T17:09:29.407Z,23.96
2022-08-16T17:11:58.566Z,24.25
2022-08-16T17:14:33.911Z,24.04
2022-08-16T17:17:05.316Z,24.31
2022-08-16T17:19:40.936Z,24.08
2022-08-16T17:22:15.165Z,23.88
2022-08-16T17:24:45.326Z,23.74
2022-08-16T17:27:17.759Z,23.69
2022-08-16T17:32:47.397Z,23.19
2022-08-16T17:35:19.062Z,22.83
2022-08-16T17:37:51.509Z,23.04
2022-08-16T17:39:28.652Z,23.44
2022-08-16T17:40:25.529Z,22.81
2022-08-16T17:43:10.980Z,22.44
2022-08-16T17:45:39.608Z,22.61
2022-08-16T17:48:07.283Z,22.46
2022-08-16T17:50:35.855Z,22.54
2022-08-16T17:53:03.779Z,22.41
2022-08-16T17:55:33.925Z,22.24
2022-08-16T17:58:09.667Z,22.06
2022-08-16T18:00:52.111Z,22.36
2022-08-16T18:04:07.557Z,21.97
2022-08-16T18:06:13.489Z,22.49
2022-08-16T18:08:44.556Z,22.36
2022-08-16T18:11:18.514Z,22.69
2022-08-16T18:13:47.403Z,22.34
2022-08-16T18:16:16.976Z,22.22
2022-08-16T18:18:44.885Z,22.03
2022-08-16T18:21:32.243Z,22.24
2022-08-16T18:23:59.798Z,22.34
2022-08-16T18:26:27.836Z,22.39
2022-08-16T18:28:55.437Z,21.85
2022-08-16T18:31:23.162Z,21.68
2022-08-16T18:33:54.746Z,21.67
2022-08-16T18:36:24.667Z,21.87
2022-08-16T18:38:53.809Z,21.81
2022-08-16T18:41:23.471Z,21.89
2022-08-16T18:44:23.967Z,21.92
2022-08-16T18:46:40.975Z,21.93
2022-08-16T18:49:08.708Z,21.79
2022-08-16T18:51:37.366Z,22.20
2022-08-16T18:54:05.388Z,21.85
2022-08-16T18:56:55.662Z,22.21
2022-08-16T18:59:21.403Z,21.89
2022-08-16T19:01:49.040Z,22.14
2022-08-16T19:04:47.586Z,21.74
2022-08-16T19:07:04.739Z,21.84
2022-08-16T19:09:32.418Z,21.98
2022-08-16T19:12:04.007Z,21.98
2022-08-16T19:14:32.006Z,21.77
2022-08-16T19:16:59.682Z,22.04
2022-08-16T19:19:27.400Z,22.17
2022-08-16T19:21:55.313Z,22.21
2022-08-16T19:24:22.907Z,22.29
2022-08-16T19:26:57.262Z,21.94
2022-08-16T19:29:25.438Z,21.76
2022-08-16T19:31:53.027Z,21.54
2022-08-16T19:34:20.964Z,21.53
2022-08-16T19:36:48.812Z,21.21
2022-08-16T19:39:16.508Z,21.27
2022-08-16T19:41:46.192Z,21.27
2022-08-16T19:44:20.866Z,21.53
2022-08-16T19:46:49.509Z,21.38
2022-08-16T19:49:17.354Z,21.27
2022-08-16T19:51:46.092Z,21.20
2022-08-16T19:54:14.345Z,21.31
2022-08-16T19:56:41.967Z,20.95
2022-08-16T19:59:19.228Z,21.43
2022-08-16T20:01:50.407Z,21.26
2022-08-16T20:04:18.862Z,21.05
2022-08-16T20:06:47.358Z,21.22
2022-08-16T20:09:15.977Z,21.09
2022-08-16T20:11:45.223Z,21.10
2022-08-16T20:14:19.342Z,20.88
2022-08-16T20:16:57.727Z,20.71
2022-08-16T20:19:29.485Z,21.03
2022-08-16T20:22:02.801Z,20.52
2022-08-16T20:24:34.756Z,20.64
2022-08-16T20:27:05.148Z,21.00
2022-08-16T20:29:32.735Z,20.78
2022-08-16T20:32:00.374Z,20.61
2022-08-16T20:34:28.298Z,20.51
2022-08-16T20:36:55.872Z,20.57
2022-08-16T20:39:24.419Z,20.87
2022-08-16T20:41:52.410Z,20.79
2022-08-16T20:44:22.989Z,20.69
2022-08-16T20:46:53.521Z,20.39
2022-08-16T20:49:21.182Z,20.60
2022-08-16T20:51:50.532Z,20.40
2022-08-16T20:54:20.182Z,20.64
2022-08-16T20:56:47.814Z,20.23
2022-08-16T20:59:15.594Z,20.73
2022-08-16T21:01:46.412Z,20.68
2022-08-16T21:04:25.573Z,20.37
2022-08-16T21:06:55.133Z,20.12
2022-08-16T21:09:23.797Z,20.10
2022-08-16T21:11:52.621Z,20.22
2022-08-16T21:14:20.688Z,20.11
2022-08-16T21:16:48.349Z,20.06
2022-08-16T21:19:16.310Z,19.81
2022-08-16T21:21:44.515Z,19.84
2022-08-16T21:24:12.245Z,19.84
2022-08-16T21:26:55.241Z,19.96
2022-08-16T21:29:42.704Z,19.93
2022-08-16T21:32:34.829Z,20.06
2022-08-16T21:35:05.177Z,19.75
2022-08-16T21:37:33.178Z,19.67
2022-08-16T21:40:01.076Z,19.78
2022-08-16T21:42:35.744Z,19.56
2022-08-16T21:45:04.342Z,19.46
2022-08-16T21:47:32.292Z,19.51
2022-08-16T21:49:59.898Z,19.23
2022-08-16T21:52:27.962Z,19.20
2022-08-16T21:54:56.792Z,19.40
2022-08-16T21:57:24.569Z,19.41
2022-08-16T21:59:53.205Z,19.48
2022-08-16T22:02:22.890Z,19.26
2022-08-16T22:04:53.687Z,19.51
2022-08-16T22:07:21.321Z,19.19
2022-08-16T22:09:50.650Z,19.63
2022-08-16T22:12:24.142Z,19.58
2022-08-16T22:14:51.925Z,19.38
2022-08-16T22:17:19.931Z,19.05
2022-08-16T22:19:47.688Z,19.08
2022-08-16T22:22:15.399Z,19.28
2022-08-16T22:24:43.386Z,19.24
2022-08-16T22:27:11.113Z,19.04
2022-08-16T22:29:39.454Z,18.93
2022-08-16T22:32:10.386Z,19.23
2022-08-16T22:34:37.937Z,19.16
2022-08-16T22:37:05.530Z,19.00
2022-08-16T22:39:33.962Z,19.01
2022-08-16T22:42:08.709Z,18.89
2022-08-16T22:44:37.531Z,18.95
2022-08-16T22:47:05.406Z,18.92
2022-08-16T22:49:33.596Z,18.71
2022-08-16T22:52:07.739Z,18.80
2022-08-16T22:54:47.315Z,18.59
2022-08-16T22:57:16.896Z,18.68
2022-08-16T23:02:33.615Z,18.14
2022-08-16T23:05:01.329Z,18.39
2022-08-16T23:07:30.258Z,18.33
2022-08-16T23:09:58.624Z,18.41
2022-08-16T23:12:30.747Z,18.35
2022-08-16T23:15:03.055Z,18.07
2022-08-16T23:17:31.549Z,17.73
2022-08-16T23:19:59.626Z,17.82
2022-08-16T23:22:27.221Z,17.67
2022-08-16T23:24:56.433Z,17.76
2022-08-16T23:27:25.002Z,17.84
2022-08-16T23:29:52.990Z,17.86
2022-08-16T23:32:20.604Z,18.04
2022-08-16T23:34:48.616Z,17.98
2022-08-16T23:37:20.693Z,17.85
2022-08-16T23:39:48.783Z,18.13
2022-08-16T23:42:52.921Z,17.87
2022-08-16T23:45:10.127Z,17.66
2022-08-16T23:47:37.638Z,17.94
2022-08-16T23:50:05.433Z,17.90
2022-08-16T23:52:42.320Z,17.69
2022-08-16T23:55:21.035Z,17.69
2022-08-16T23:57:49.264Z,17.43
